createdAt,value
2019-06-10T00:00:13.547Z,53.12
2019-06-10T00:02:36.382Z,53.07
2019-06-10T00:05:07.293Z,53.00
2019-06-10T00:07:33.668Z,53.29
2019-06-10T00:10:01.101Z,53.02
2019-06-10T00:12:28.170Z,53.40
2019-06-10T00:14:54.447Z,53.25
2019-06-10T00:17:21.358Z,53.35
2019-06-10T00:19:47.863Z,53.71
2019-06-10T00:22:14.094Z,53.79
2019-06-10T00:24:40.912Z,53.69
2019-06-10T00:27:09.360Z,53.76
2019-06-10T00:29:36.401Z,53.72
2019-06-10T00:32:05.357Z,53.89
2019-06-10T00:34:31.608Z,54.05
2019-06-10T00:36:59.653Z,53.82
2019-06-10T00:39:27.126Z,54.09
2019-06-10T00:41:53.330Z,53.95
2019-06-10T00:44:20.629Z,54.13
2019-06-10T00:46:46.940Z,54.02
2019-06-10T00:49:14.735Z,54.39
2019-06-10T00:51:41.511Z,54.17
2019-06-10T00:54:08.603Z,54.67
2019-06-10T00:56:35.971Z,54.57
2019-06-10T00:59:03.750Z,55.31
2019-06-10T01:01:31.333Z,55.02
2019-06-10T01:03:57.687Z,54.79
2019-06-10T01:06:23.894Z,54.82
2019-06-10T01:08:51.260Z,54.82
2019-06-10T01:11:23.910Z,55.14
2019-06-10T01:13:45.706Z,55.06
2019-06-10T01:16:12.611Z,55.19
2019-06-10T01:18:41.621Z,55.40
2019-06-10T01:21:07.972Z,55.18
2019-06-10T01:23:34.232Z,55.43
2019-06-10T01:26:01.732Z,55.55
2019-06-10T01:28:27.976Z,55.82
2019-06-10T01:30:54.243Z,55.96
2019-06-10T01:33:21.256Z,55.83
2019-06-10T01:35:47.521Z,55.86
2019-06-10T01:38:16.270Z,55.84
2019-06-10T01:40:42.407Z,55.83
2019-06-10T01:43:08.730Z,55.85
2019-06-10T01:45:34.928Z,56.28
2019-06-10T01:48:01.498Z,56.95
2019-06-10T01:50:27.727Z,56.60
2019-06-10T01:52:53.790Z,56.99
2019-06-10T01:55:21.874Z,57.17
2019-06-10T01:57:48.128Z,57.21
2019-06-10T02:00:22.090Z,56.94
2019-06-10T02:02:44.973Z,56.78
2019-06-10T02:05:14.633Z,56.89
2019-06-10T02:07:40.978Z,57.34
2019-06-10T02:10:07.460Z,57.02
2019-06-10T02:12:33.755Z,57.19
2019-06-10T02:15:01.767Z,57.11
2019-06-10T02:17:31.047Z,57.18
2019-06-10T02:19:56.700Z,56.85
2019-06-10T02:22:24.342Z,57.00
2019-06-10T02:24:50.808Z,57.06
2019-06-10T02:27:17.441Z,57.00
2019-06-10T02:29:43.712Z,57.12
2019-06-10T02:32:14.585Z,57.12
2019-06-10T02:34:50.720Z,57.20
2019-06-10T02:37:06.029Z,57.30
2019-06-10T02:39:38.288Z,57.63
2019-06-10T02:42:04.441Z,57.83
2019-06-10T02:44:34.326Z,58.05
2019-06-10T02:46:58.721Z,57.98
2019-06-10T02:49:46.312Z,57.95
2019-06-10T02:51:53.741Z,58.26
2019-06-10T02:54:22.995Z,58.79
2019-06-10T02:56:48.375Z,58.74
2019-06-10T02:59:16.161Z,59.41
2019-06-10T03:01:43.991Z,59.37
2019-06-10T03:04:13.719Z,59.39
2019-06-10T03:06:40.151Z,59.78
2019-06-10T03:09:06.874Z,60.23
2019-06-10T03:11:36.976Z,60.46
2019-06-10T03:14:02.601Z,60.58
2019-06-10T03:16:37.201Z,60.84
2019-06-10T03:19:03.461Z,60.70
2019-06-10T03:21:29.624Z,60.24
2019-06-10T03:23:55.734Z,60.80
2019-06-10T03:26:24.034Z,61.14
2019-06-10T03:28:52.033Z,61.42
2019-06-10T03:31:20.522Z,61.66
2019-06-10T03:33:47.930Z,61.18
2019-06-10T03:36:14.544Z,61.04
2019-06-10T03:38:42.973Z,61.20
2019-06-10T03:41:08.951Z,61.15
2019-06-10T03:43:35.143Z,61.59
2019-06-10T03:46:03.172Z,61.48
2019-06-10T03:48:29.370Z,61.27
2019-06-10T03:50:55.440Z,61.13
2019-06-10T03:53:23.986Z,61.15
2019-06-10T03:55:49.723Z,61.44
2019-06-10T03:58:17.353Z,61.48
2019-06-10T04:00:44.910Z,61.62
2019-06-10T04:03:12.158Z,61.63
2019-06-10T04:05:38.384Z,61.43
2019-06-10T04:08:04.682Z,62.06
2019-06-10T04:10:32.479Z,61.78
2019-06-10T04:12:58.769Z,62.00
2019-06-10T04:15:27.759Z,62.66
2019-06-10T04:17:53.180Z,62.50
2019-06-10T04:20:19.814Z,62.41
2019-06-10T04:22:46.063Z,62.38
2019-06-10T04:25:12.418Z,62.66
2019-06-10T04:27:38.482Z,62.75
2019-06-10T04:30:06.733Z,63.33
2019-06-10T04:32:32.811Z,63.61
2019-06-10T04:34:58.978Z,63.57
2019-06-10T04:37:27.398Z,63.70
2019-06-10T04:39:53.199Z,63.54
2019-06-10T04:42:20.318Z,63.07
2019-06-10T04:44:47.314Z,62.81
2019-06-10T04:47:13.421Z,62.70
2019-06-10T04:49:39.620Z,63.05
2019-06-10T04:52:06.909Z,63.14
2019-06-10T04:54:33.413Z,62.64
2019-06-10T04:57:02.135Z,62.80
2019-06-10T04:59:30.076Z,62.99
2019-06-10T05:01:55.875Z,63.17
2019-06-10T05:04:24.070Z,62.86
2019-06-10T05:06:52.550Z,63.07
2019-06-10T05:09:19.088Z,63.28
2019-06-10T05:11:45.326Z,63.70
2019-06-10T05:14:13.225Z,63.65
2019-06-10T05:16:39.610Z,63.40
2019-06-10T05:19:05.813Z,63.14
2019-06-10T05:21:33.703Z,62.72
2019-06-10T05:24:00.000Z,62.60
2019-06-10T05:26:27.662Z,62.19
2019-06-10T05:28:54.138Z,61.79
2019-06-10T05:31:20.273Z,61.76
2019-06-10T05:33:46.454Z,61.60
2019-06-10T05:36:13.171Z,61.69
2019-06-10T05:38:39.699Z,61.60
2019-06-10T05:41:05.758Z,61.59
2019-06-10T05:43:34.321Z,61.09
2019-06-10T05:46:02.582Z,60.86
2019-06-10T05:48:28.334Z,60.30
2019-06-10T05:51:02.638Z,59.47
2019-06-10T05:53:24.499Z,58.71
2019-06-10T05:55:52.844Z,58.60
2019-06-10T05:58:18.797Z,58.38
2019-06-10T06:00:45.003Z,58.24
2019-06-10T06:03:12.072Z,58.09
2019-06-10T06:05:38.373Z,58.02
2019-06-10T06:08:08.562Z,58.38
2019-06-10T06:10:35.531Z,58.60
2019-06-10T06:13:03.089Z,58.12
2019-06-10T06:15:29.638Z,56.62
2019-06-10T06:18:09.149Z,56.32
2019-06-10T06:20:25.051Z,56.77
2019-06-10T06:22:52.259Z,56.34
2019-06-10T06:25:18.713Z,55.51
2019-06-10T06:27:45.413Z,55.85
2019-06-10T06:30:18.418Z,56.28
2019-06-10T06:32:43.552Z,56.59
2019-06-10T06:35:12.629Z,57.06
2019-06-10T06:37:39.684Z,56.79
2019-06-10T06:40:07.402Z,57.01
2019-06-10T06:42:35.056Z,57.51
2019-06-10T06:45:03.053Z,57.17
2019-06-10T06:47:29.798Z,57.83
2019-06-10T06:49:56.072Z,58.12
2019-06-10T06:52:46.597Z,58.20
2019-06-10T06:54:53.054Z,58.00
2019-06-10T06:57:19.319Z,57.86
2019-06-10T06:59:45.518Z,57.50
2019-06-10T07:02:12.423Z,57.97
2019-06-10T07:04:40.546Z,58.18
2019-06-10T07:07:07.288Z,57.97
2019-06-10T07:09:35.902Z,57.87
2019-06-10T07:12:03.604Z,57.19
2019-06-10T07:14:35.250Z,57.35
2019-06-10T07:16:59.908Z,57.37
2019-06-10T07:19:26.069Z,56.82
2019-06-10T07:22:08.649Z,56.87
2019-06-10T07:24:20.283Z,57.20
2019-06-10T07:26:52.214Z,57.34
2019-06-10T07:29:14.600Z,56.97
2019-06-10T07:31:43.918Z,56.95
2019-06-10T07:34:08.823Z,56.93
2019-06-10T07:36:35.686Z,56.92
2019-06-10T07:39:05.439Z,57.02
2019-06-10T07:41:32.783Z,56.28
2019-06-10T07:43:59.682Z,56.06
2019-06-10T07:46:25.740Z,55.74
2019-06-10T07:48:56.188Z,55.88
2019-06-10T07:51:22.349Z,56.00
2019-06-10T07:53:47.927Z,55.75
2019-06-10T07:56:13.989Z,55.84
2019-06-10T07:58:44.416Z,55.59
2019-06-10T08:01:08.618Z,55.13
2019-06-10T08:03:35.337Z,54.99
2019-06-10T08:06:03.743Z,55.33
2019-06-10T08:08:29.986Z,55.00
2019-06-10T08:10:56.076Z,54.91
2019-06-10T08:13:22.698Z,54.90
2019-06-10T08:15:48.980Z,54.91
2019-06-10T08:18:15.280Z,54.73
2019-06-10T08:20:45.366Z,53.64
2019-06-10T08:23:14.463Z,53.75
2019-06-10T08:25:43.767Z,53.29
2019-06-10T08:28:08.713Z,53.03
2019-06-10T08:30:35.687Z,53.12
2019-06-10T08:33:03.358Z,53.25
2019-06-10T08:35:41.465Z,53.14
2019-06-10T08:37:57.856Z,53.22
2019-06-10T08:40:24.055Z,53.50
2019-06-10T08:42:50.553Z,53.04
2019-06-10T08:45:16.841Z,53.37
2019-06-10T09:29:13.582Z,52.11
2019-06-10T09:31:41.612Z,51.99
2019-06-10T09:34:08.284Z,51.64
2019-06-10T09:36:34.488Z,52.20
2019-06-10T09:39:03.740Z,52.56
2019-06-10T09:41:39.385Z,52.02
2019-06-10T09:43:59.947Z,51.92
2019-06-10T09:46:29.293Z,52.12
2019-06-10T09:49:02.134Z,52.26
2019-06-10T09:51:28.563Z,52.25
2019-06-10T09:54:03.166Z,51.48
2019-06-10T09:56:26.588Z,51.71
2019-06-10T09:58:55.240Z,52.02
2019-06-10T10:01:24.539Z,51.78
2019-06-10T10:03:59.408Z,52.17
2019-06-10T10:06:23.764Z,51.83
2019-06-10T10:08:57.544Z,51.56
2019-06-10T10:11:18.210Z,51.69
2019-06-10T10:13:47.406Z,52.04
2019-06-10T10:16:13.184Z,51.52
2019-06-10T10:18:40.125Z,51.16
2019-06-10T10:21:06.483Z,51.05
2019-06-10T10:23:50.090Z,49.92
2019-06-10T10:26:03.567Z,49.24
2019-06-10T10:28:33.420Z,49.15
2019-06-10T10:30:59.403Z,49.00
2019-06-10T10:33:29.880Z,48.72
2019-06-10T10:35:56.108Z,48.33
2019-06-10T10:38:28.216Z,48.30
2019-06-10T10:40:58.987Z,48.05
2019-06-10T10:43:32.720Z,47.93
2019-06-10T10:46:00.118Z,47.32
2019-06-10T10:48:22.616Z,47.95
2019-06-10T10:50:49.237Z,47.96
2019-06-10T10:53:15.460Z,47.58
2019-06-10T10:55:42.529Z,47.65
2019-06-10T10:58:12.752Z,48.07
2019-06-10T11:00:41.714Z,47.84
2019-06-10T11:03:13.373Z,47.40
2019-06-10T11:05:41.351Z,47.16
2019-06-10T11:08:08.811Z,46.84
2019-06-10T11:10:35.450Z,46.52
2019-06-10T11:13:04.640Z,46.60
2019-06-10T11:15:33.799Z,46.20
2019-06-10T11:17:59.431Z,45.77
2019-06-10T11:20:25.983Z,44.96
2019-06-10T11:22:53.616Z,44.69
2019-06-10T11:25:19.892Z,44.07
2019-06-10T11:27:46.396Z,43.95
2019-06-10T11:30:13.032Z,44.49
2019-06-10T11:32:39.110Z,44.23
2019-06-10T11:35:06.027Z,43.91
2019-06-10T11:37:32.234Z,42.59
2019-06-10T11:39:58.378Z,42.79
2019-06-10T11:42:24.443Z,41.85
2019-06-10T11:44:57.393Z,41.10
2019-06-10T11:47:22.829Z,40.26
2019-06-10T11:49:48.993Z,41.45
2019-06-10T11:52:15.146Z,42.04
2019-06-10T11:54:53.751Z,42.74
2019-06-10T11:57:09.277Z,42.74
2019-06-10T11:59:35.443Z,43.65
2019-06-10T12:02:05.845Z,44.27
2019-06-10T12:04:30.635Z,44.43
2019-06-10T12:06:57.390Z,44.88
2019-06-10T12:09:24.155Z,42.16
2019-06-10T12:11:54.270Z,41.62
2019-06-10T12:14:19.463Z,41.12
2019-06-10T12:19:13.970Z,41.18
2019-06-10T12:21:43.218Z,42.61
2019-06-10T12:24:09.048Z,39.73
2019-06-10T12:26:36.692Z,40.16
2019-06-10T12:29:05.780Z,41.57
2019-06-10T12:31:34.504Z,40.42
2019-06-10T12:34:02.296Z,38.71
2019-06-10T12:36:28.780Z,37.48
2019-06-10T12:38:59.692Z,37.30
2019-06-10T12:41:23.656Z,37.50
2019-06-10T12:43:50.020Z,38.44
2019-06-10T12:46:18.159Z,38.55
2019-06-10T12:48:45.303Z,38.99
2019-06-10T12:51:13.582Z,40.11
2019-06-10T12:53:39.586Z,40.92
2019-06-10T12:56:10.657Z,41.96
2019-06-10T12:58:33.856Z,42.64
2019-06-10T13:01:01.234Z,43.50
2019-06-10T13:03:28.337Z,44.18
2019-06-10T13:05:57.748Z,44.97
2019-06-10T13:08:26.737Z,45.24
2019-06-10T13:10:53.441Z,45.90
2019-06-10T13:13:19.698Z,45.85
2019-06-10T13:15:45.888Z,45.63
2019-06-10T13:18:18.963Z,45.08
2019-06-10T13:20:43.066Z,45.40
2019-06-10T13:23:22.475Z,45.01
2019-06-10T13:25:50.347Z,43.94
2019-06-10T13:28:06.751Z,44.03
2019-06-10T13:30:34.295Z,42.74
2019-06-10T13:33:02.387Z,41.14
2019-06-10T13:35:28.678Z,39.86
2019-06-10T13:37:54.836Z,37.96
2019-06-10T13:40:22.703Z,37.42
2019-06-10T13:42:48.953Z,35.80
2019-06-10T13:45:15.437Z,34.58
2019-06-10T13:47:43.000Z,34.30
2019-06-10T13:50:13.697Z,33.36
2019-06-10T13:52:38.341Z,32.44
2019-06-10T13:55:08.823Z,31.91
2019-06-10T13:57:34.437Z,32.46
2019-06-10T14:00:04.269Z,32.04
2019-06-10T14:02:28.975Z,32.76
2019-06-10T14:04:55.134Z,32.59
2019-06-10T14:07:23.401Z,32.59
2019-06-10T14:09:49.397Z,33.69
2019-06-10T14:12:17.593Z,34.35
2019-06-10T14:14:44.000Z,33.85
2019-06-10T14:17:15.897Z,34.61
2019-06-10T14:19:38.282Z,34.38
2019-06-10T14:22:07.593Z,34.27
2019-06-10T14:24:33.717Z,34.71
2019-06-10T14:27:00.152Z,33.86
2019-06-10T14:29:26.537Z,34.07
2019-06-10T14:31:53.260Z,33.75
2019-06-10T14:34:22.317Z,32.74
2019-06-10T14:36:47.669Z,31.76
2019-06-10T14:39:15.621Z,31.02
2019-06-10T14:41:43.044Z,32.17
2019-06-10T14:44:10.690Z,32.71
2019-06-10T14:46:37.304Z,32.04
2019-06-10T14:49:04.680Z,31.95
2019-06-10T14:51:32.576Z,32.79
2019-06-10T14:53:58.837Z,33.12
2019-06-10T14:56:25.075Z,34.21
2019-06-10T14:58:52.983Z,34.21
2019-06-10T15:01:25.017Z,34.67
2019-06-10T15:03:47.464Z,35.17
2019-06-10T15:06:15.633Z,35.74
2019-06-10T15:08:42.866Z,35.56
2019-06-10T15:11:09.685Z,35.29
2019-06-10T15:13:35.777Z,35.30
2019-06-10T15:16:04.371Z,35.60
2019-06-10T15:18:29.919Z,35.25
2019-06-10T15:20:56.200Z,34.88
2019-06-10T15:23:23.839Z,34.44
2019-06-10T15:25:53.963Z,35.04
2019-06-10T15:28:18.104Z,35.51
2019-06-10T15:30:45.194Z,36.46
2019-06-10T15:33:14.896Z,36.73
2019-06-10T15:35:39.435Z,36.90
2019-06-10T15:38:05.687Z,35.63
2019-06-10T15:40:32.877Z,35.58
2019-06-10T15:42:59.067Z,35.27
2019-06-10T15:45:26.267Z,34.73
2019-06-10T15:47:53.115Z,35.22
2019-06-10T15:50:21.139Z,34.66
2019-06-10T15:52:47.652Z,35.62
2019-06-10T15:55:33.471Z,35.97
2019-06-10T15:57:45.617Z,36.63
2019-06-10T16:00:14.195Z,37.22
2019-06-10T16:02:38.381Z,37.94
2019-06-10T16:05:05.287Z,38.98
2019-06-10T16:07:32.575Z,39.71
2019-06-10T16:09:58.768Z,40.28
2019-06-10T16:12:38.294Z,40.11
2019-06-10T16:15:05.462Z,40.81
2019-06-10T16:17:33.202Z,41.57
2019-06-10T16:20:00.000Z,41.64
2019-06-10T16:22:26.816Z,42.45
2019-06-10T16:24:53.459Z,42.94
2019-06-10T16:27:22.546Z,43.61
2019-06-10T16:29:48.527Z,43.31
2019-06-10T16:32:16.320Z,44.22
2019-06-10T16:34:47.194Z,44.48
2019-06-10T16:37:15.059Z,45.08
2019-06-10T16:39:43.169Z,45.37
2019-06-10T16:42:12.170Z,45.55
2019-06-10T16:44:38.339Z,45.95
2019-06-10T16:47:06.519Z,46.25
2019-06-10T16:49:32.992Z,46.51
2019-06-10T16:52:06.565Z,46.88
2019-06-10T16:54:34.019Z,46.69
2019-06-10T16:57:03.565Z,47.79
2019-06-10T16:59:30.819Z,49.11
2019-06-10T17:01:57.841Z,49.01
2019-06-10T17:04:27.261Z,48.51
2019-06-10T17:06:53.025Z,47.67
2019-06-10T17:09:21.081Z,48.21
2019-06-10T17:11:48.205Z,48.66
2019-06-10T17:14:14.944Z,48.66
2019-06-10T17:16:41.613Z,47.75
2019-06-10T17:19:08.187Z,48.04
2019-06-10T17:21:35.009Z,48.60
2019-06-10T17:24:03.503Z,49.34
2019-06-10T17:26:37.954Z,49.78
2019-06-10T17:29:06.387Z,49.97
2019-06-10T17:31:35.163Z,50.39
2019-06-10T17:34:02.673Z,50.04
2019-06-10T17:36:32.664Z,50.47
2019-06-10T17:38:58.798Z,50.44
2019-06-10T17:41:28.554Z,50.58
2019-06-10T17:43:53.999Z,50.93
2019-06-10T17:47:09.874Z,52.09
2019-06-10T17:49:42.039Z,52.39
2019-06-10T17:52:36.617Z,52.39
2019-06-10T17:55:03.470Z,52.86
2019-06-10T17:57:35.789Z,54.00
2019-06-10T18:00:07.211Z,54.03
2019-06-10T18:02:34.551Z,55.83
2019-06-10T19:17:50.378Z,90.47
2019-06-10T19:20:17.835Z,89.29
2019-06-10T19:22:44.077Z,89.01
2019-06-10T19:25:12.743Z,89.29
2019-06-10T19:27:43.964Z,89.40
2019-06-10T19:30:10.744Z,89.32
2019-06-10T19:32:38.690Z,88.65
2019-06-10T19:35:07.292Z,88.77
2019-06-10T19:37:35.729Z,88.91
2019-06-10T19:40:06.449Z,89.60
2019-06-10T19:42:35.352Z,89.69
2019-06-10T19:45:07.235Z,90.49
2019-06-10T19:47:34.622Z,90.13
2019-06-10T19:50:06.889Z,90.07
2019-06-10T19:52:35.135Z,90.30
2019-06-10T19:55:03.475Z,89.83
2019-06-10T19:57:34.229Z,89.28
2019-06-10T20:00:12.336Z,89.43
2019-06-10T20:02:39.728Z,89.68
2019-06-10T20:05:07.492Z,88.95
2019-06-10T20:07:34.307Z,88.68
2019-06-10T20:10:02.845Z,89.29
2019-06-10T20:12:32.456Z,89.39
2019-06-10T20:14:59.288Z,89.30
2019-06-10T20:17:25.566Z,89.47
2019-06-10T20:19:51.790Z,89.84
2019-06-10T20:22:18.091Z,90.13
2019-06-10T20:24:46.684Z,90.47
2019-06-10T20:27:13.433Z,89.81
2019-06-10T20:29:43.020Z,88.89
2019-06-10T20:32:10.959Z,89.00
2019-06-10T20:34:37.755Z,89.25
2019-06-10T20:37:04.851Z,89.40
2019-06-10T20:39:33.046Z,89.21
2019-06-10T20:42:02.527Z,89.65
2019-06-10T20:44:28.489Z,90.18
2019-06-10T20:46:55.664Z,90.41
2019-06-10T20:49:22.675Z,90.61
2019-06-10T20:52:04.263Z,90.69
2019-06-10T20:54:18.043Z,90.85
2019-06-10T20:56:47.313Z,90.95
2019-06-10T20:59:13.246Z,90.95
2019-06-10T21:01:43.732Z,90.92
2019-06-10T21:04:09.411Z,90.70
2019-06-10T21:06:37.512Z,90.70
2019-06-10T21:09:08.173Z,90.61
2019-06-10T21:11:36.250Z,90.87
2019-06-10T21:14:04.021Z,91.26
2019-06-10T21:16:32.158Z,91.26
2019-06-10T21:19:01.480Z,91.01
2019-06-10T21:21:28.407Z,90.71
2019-06-10T21:23:54.799Z,90.65
2019-06-10T21:26:23.409Z,90.80
2019-06-10T21:28:50.436Z,90.45
2019-06-10T21:31:17.725Z,90.99
2019-06-10T21:33:45.902Z,91.42
2019-06-10T21:36:12.405Z,91.44
2019-06-10T21:38:38.743Z,91.44
2019-06-10T21:41:04.953Z,91.11
2019-06-10T21:43:33.119Z,91.30
2019-06-10T21:45:59.129Z,91.54
2019-06-10T21:48:25.300Z,91.20
2019-06-10T21:50:54.615Z,90.47
2019-06-10T21:53:22.162Z,90.26
2019-06-10T21:55:48.740Z,90.42
2019-06-10T21:58:14.958Z,90.59
2019-06-10T22:01:03.325Z,91.20
2019-06-10T22:03:18.042Z,91.49
2019-06-10T22:05:45.759Z,91.59
2019-06-10T22:08:13.420Z,91.56
2019-06-10T22:10:42.319Z,91.22
2019-06-10T22:13:09.102Z,91.33
2019-06-10T22:15:35.191Z,91.16
2019-06-10T22:18:02.275Z,90.70
2019-06-10T22:20:28.795Z,90.60
2019-06-10T22:22:56.380Z,90.54
2019-06-10T22:25:23.015Z,90.60
2019-06-10T22:27:50.017Z,90.95
2019-06-10T22:30:16.651Z,91.09
2019-06-10T22:32:43.045Z,91.50
2019-06-10T22:35:09.425Z,90.73
2019-06-10T22:37:35.657Z,90.73
2019-06-10T22:40:03.742Z,90.61
2019-06-10T22:42:32.777Z,90.81
2019-06-10T22:45:00.221Z,90.43
2019-06-10T22:47:26.654Z,90.35
2019-06-10T22:49:56.081Z,90.82
2019-06-10T22:52:23.126Z,90.82
2019-06-10T22:54:49.674Z,91.21
2019-06-10T22:57:15.935Z,91.28
2019-06-10T22:59:42.624Z,91.01
2019-06-10T23:02:08.815Z,91.01
2019-06-10T23:04:34.997Z,91.19
2019-06-10T23:07:03.005Z,90.87
2019-06-10T23:09:29.177Z,90.57
2019-06-10T23:11:56.442Z,90.52
2019-06-10T23:14:23.364Z,90.71
2019-06-10T23:16:50.634Z,91.00
2019-06-10T23:19:17.594Z,90.67
2019-06-10T23:21:43.819Z,90.80
2019-06-10T23:24:10.049Z,91.23
2019-06-10T23:26:36.234Z,91.32
2019-06-10T23:29:03.234Z,91.41
2019-06-10T23:31:29.778Z,91.55
2019-06-10T23:33:56.685Z,91.66
2019-06-10T23:36:23.492Z,91.83
2019-06-10T23:38:50.611Z,91.98
2019-06-10T23:41:16.804Z,92.01
2019-06-10T23:43:42.945Z,91.98
2019-06-10T23:46:09.070Z,91.67
2019-06-10T23:48:35.195Z,91.81
2019-06-10T23:51:04.718Z,91.81
2019-06-10T23:53:29.403Z,91.80
2019-06-10T23:55:56.195Z,91.84
2019-06-10T23:58:24.970Z,91.15
